Map

Track Data

SID SEASON NUMBER BASIN SUBBASIN NAME ISO_TIME NATURE LAT LON WMO_WIND WMO_PRES WMO_AGENCY TRACK_TYPE DIST2LAND LANDFALL IFLAG USA_AGENCY USA_ATCF_ID USA_LAT USA_LON USA_RECORD USA_STATUS USA_WIND USA_PRES USA_SSHS USA_R34_NE USA_R34_SE USA_R34_SW USA_R34_NW USA_R50_NE USA_R50_SE USA_R50_SW USA_R50_NW USA_R64_NE USA_R64_SE USA_R64_SW USA_R64_NW USA_POCI USA_ROCI USA_RMW USA_EYE TOKYO_LAT TOKYO_LON TOKYO_GRADE TOKYO_WIND TOKYO_PRES TOKYO_R50_DIR TOKYO_R50_LONG TOKYO_R50_SHORT TOKYO_R30_DIR TOKYO_R30_LONG TOKYO_R30_SHORT TOKYO_LAND CMA_LAT CMA_LON CMA_CAT CMA_WIND CMA_PRES HKO_LAT HKO_LON HKO_CAT HKO_WIND HKO_PRES NEWDELHI_LAT NEWDELHI_LON NEWDELHI_GRADE NEWDELHI_WIND NEWDELHI_PRES NEWDELHI_CI NEWDELHI_DP NEWDELHI_POCI REUNION_LAT REUNION_LON REUNION_TYPE REUNION_WIND REUNION_PRES REUNION_TNUM REUNION_CI REUNION_RMW REUNION_R34_NE REUNION_R34_SE REUNION_R34_SW REUNION_R34_NW REUNION_R50_NE REUNION_R50_SE REUNION_R50_SW REUNION_R50_NW REUNION_R64_NE REUNION_R64_SE REUNION_R64_SW REUNION_R64_NW BOM_LAT BOM_LON BOM_TYPE BOM_WIND BOM_PRES BOM_TNUM BOM_CI BOM_RMW BOM_R34_NE BOM_R34_SE BOM_R34_SW BOM_R34_NW BOM_R50_NE BOM_R50_SE BOM_R50_SW BOM_R50_NW BOM_R64_NE BOM_R64_SE BOM_R64_SW BOM_R64_NW BOM_ROCI BOM_POCI BOM_EYE BOM_POS_METHOD BOM_PRES_METHOD NADI_LAT NADI_LON NADI_CAT NADI_WIND NADI_PRES WELLINGTON_LAT WELLINGTON_LON WELLINGTON_WIND WELLINGTON_PRES DS824_LAT DS824_LON DS824_STAGE DS824_WIND DS824_PRES TD9636_LAT TD9636_LON TD9636_STAGE TD9636_WIND TD9636_PRES TD9635_LAT TD9635_LON TD9635_WIND TD9635_PRES TD9635_ROCI NEUMANN_LAT NEUMANN_LON NEUMANN_CLASS NEUMANN_WIND NEUMANN_PRES MLC_LAT MLC_LON MLC_CLASS MLC_WIND MLC_PRES USA_GUST BOM_GUST BOM_GUST_PER REUNION_GUST REUNION_GUST_PER USA_SEAHGT USA_SEARAD_NE USA_SEARAD_SE USA_SEARAD_SW USA_SEARAD_NW STORM_SPEED STORM_DIR
1958293N12128 1958 100 WP MM KATHY 1958-10-20 06:00:00 TS 12.2800 128.440 998 tokyo main 315 240 OOO______O_O__ jtwc_wp WP171958 11.8000 128.400 30 -1 13.0000 128.500 2 998 0 0 0 13.0000 128.500 1 29 998 11.8000 128.400 TC 30 11.8000 128.400 30 1000 180 15 283
1958293N12128 1958 100 WP MM KATHY 1958-10-20 09:00:00 TS 12.4560 127.682 main 241 169 PPP______P_P__ WP171958 12.0679 127.643 30 -1 13.0405 127.740 2 998 0 0 13.0355 127.740 1 33 996 12.0679 127.643 TC 30 12.0679 127.643 30 1000 210 15 281
1958293N12128 1958 100 WP MM KATHY 1958-10-20 12:00:00 TS 12.5625 126.938 998 tokyo main 158 97 OOO______OOO__ jtwc_wp WP171958 12.3000 126.900 30 -1 13.0000 127.000 2 998 0 0 0 13.0000 127.000 2 38 995 12.3000 126.900 TC 30 12.3000 126.900 1 30 12.3000 126.900 30 1000 240 14 275
1958293N12128 1958 100 WP MM KATHY 1958-10-20 15:00:00 TS 12.5814 126.226 main 88 34 PPP______PPP__ WP171958 12.4598 126.185 30 -1 12.8298 126.292 2 997 0 0 12.8448 126.292 2 38 995 12.4598 126.185 TC 30 12.2873 126.203 1 32 12.4598 126.185 30 999 240 14 268
1958293N12128 1958 100 WP MM KATHY 1958-10-20 18:00:00 TS 12.5047 125.537 996 tokyo main 24 0 OOO______OPO__ jtwc_wp WP171958 12.5000 125.500 30 -1 12.6000 125.600 2 996 0 0 0 12.6000 125.600 2 38 995 12.5000 125.500 TC 30 12.2690 125.515 1 35 12.5000 125.500 30 999 240 13 261
1958293N12128 1958 100 WP MM KATHY 1958-10-20 21:00:00 TS 12.3629 124.865 main 0 0 PPP______PPP__ WP171958 12.4097 124.850 35 0 12.4074 124.893 2 995 0 0 12.2998 124.900 2 43 995 12.4097 124.850 TC 35 12.2411 124.845 1 37 12.4097 124.850 35 999 240 14 255
1958293N12128 1958 100 WP MM KATHY 1958-10-21 00:00:00 TS 12.1667 124.200 995 tokyo main 21 0 OOO______OOO__ jtwc_wp WP171958 12.2000 124.200 40 0 12.2000 124.200 9 995 0 0 0 12.0000 124.200 3 48 995 12.2000 124.200 TC 40 12.2000 124.200 2 40 12.2000 124.200 40 999 240 14 250
1958293N12128 1958 100 WP MM KATHY 1958-10-21 03:00:00 TS 11.8743 123.484 main 21 21 PPP______PPP__ WP171958 11.8327 123.462 42 0 11.8901 123.475 9 995 0 0 11.7101 123.455 3 53 988 11.8327 123.462 TC 42 12.1477 123.589 2 41 11.8327 123.462 42 998 240 14 251
1958293N12128 1958 100 WP MM KATHY 1958-10-21 06:00:00 TS 11.7016 122.853 995 tokyo main 22 11 OOO______OPO__ jtwc_wp WP171958 11.6000 122.800 45 0 11.7000 122.900 9 995 0 0 0 11.6000 122.800 3 58 982 11.6000 122.800 TC 45 12.1096 123.017 2 42 11.6000 122.800 45 998 240 10 269
1958293N12128 1958 100 WP MM KATHY 1958-10-21 09:00:00 TS 11.8546 122.425 main 22 15 PPP______PPP__ WP171958 11.7947 122.348 45 0 11.8022 122.655 9 994 0 0 11.8247 122.363 3 58 983 11.7947 122.348 TC 45 12.1166 122.486 2 43 11.7947 122.348 45 998 240 9 303
1958293N12128 1958 100 WP MM KATHY 1958-10-21 12:00:00 TS 12.1833 122.083 994 tokyo main 44 15 OOO______OOO__ jtwc_wp WP171958 12.2000 122.000 45 0 12.1000 122.500 9 994 0 0 0 12.2000 122.000 3 58 985 12.2000 122.000 TC 45 12.2000 122.000 2 45 12.2000 122.000 45 998 240 10 315
1958293N12128 1958 100 WP MM KATHY 1958-10-21 15:00:00 TS 12.5499 121.715 main 15 0 PPP______PPP__ WP171958 12.6224 121.658 45 0 12.4924 122.195 9 994 0 0 12.5000 121.542 3 58 986 12.6224 121.658 TC 45 12.4398 121.582 2 45 12.6224 121.658 45 998 240 10 315
1958293N12128 1958 100 WP MM KATHY 1958-10-21 18:00:00 TS 12.9081 121.334 994 tokyo main 0 0 OOO______OPO__ jtwc_wp WP171958 13.0000 121.300 45 0 12.9000 121.800 9 994 0 0 0 12.8000 121.100 3 58 988 13.0000 121.300 TC 45 12.7489 121.201 2 45 13.0000 121.300 45 998 240 10 309
1958293N12128 1958 100 WP MM KATHY 1958-10-21 21:00:00 TS 13.1675 120.931 main 0 0 PPP______PPP__ WP171958 13.2024 120.880 45 0 13.2022 121.367 9 994 0 0 13.1373 120.757 3 53 989 13.2024 120.880 TC 45 13.0585 120.819 2 45 13.2024 120.880 45 997 240 9 297
1958293N12128 1958 100 WP MM KATHY 1958-10-22 00:00:00 TS 13.3333 120.467 994 tokyo main 0 0 OOO______OOO__ jtwc_wp WP171958 13.3000 120.400 45 0 13.4000 120.800 9 994 0 0 0 13.4000 120.400 3 48 991 13.3000 120.400 TC 45 13.3000 120.400 2 45 13.3000 120.400 45 997 240 10 284
1958293N12128 1958 100 WP MM KATHY 1958-10-22 03:00:00 TS 13.4195 119.901 main 43 43 PPP______PPP__ WP171958 13.3800 119.865 45 0 13.4879 120.007 9 993 0 0 13.5100 119.922 3 48 992 13.3800 119.865 TC 45 13.3793 119.880 2 46 13.3800 119.865 45 996 270 11 275
1958293N12128 1958 100 WP MM KATHY 1958-10-22 06:00:00 TS 13.4305 119.304 992 tokyo main 108 108 OOO______OPO__ jtwc_wp WP171958 13.4000 119.300 45 0 13.5000 119.200 9 992 0 0 0 13.5000 119.400 3 48 994 13.4000 119.300 TC 45 13.3828 119.322 2 47 13.4000 119.300 45 996 300 11 268
1958293N12128 1958 100 WP MM KATHY 1958-10-22 09:00:00 TS 13.3886 118.749 main 173 173 PPP______PPP__ WP171958 13.3574 118.742 47 0 13.5071 118.605 9 991 0 0 13.4074 118.907 3 53 992 13.3574 118.742 TC 47 13.3449 118.752 2 48 13.3574 118.742 47 993 330 11 265
1958293N12128 1958 100 WP MM KATHY 1958-10-22 12:00:00 TS 13.3333 118.217 990 tokyo main 227 227 OOO______OOO__ jtwc_wp WP171958 13.3000 118.200 50 0 13.5000 118.100 9 990 0 0 0 13.3000 118.400 3 58 990 13.3000 118.200 TC 50 13.3000 118.200 2 50 13.3000 118.200 50 991 360 10 266
1958293N12128 1958 100 WP MM KATHY 1958-10-22 15:00:00 TS 13.3190 117.693 main 281 281 PPP______PPP__ WP171958 13.2924 117.685 50 0 13.4999 117.585 9 990 0 0 13.2775 117.850 3 58 988 13.2924 117.685 TC 50 13.2593 117.667 2 50 13.2924 117.685 50 988 330 10 269
1958293N12128 1958 100 WP MM KATHY 1958-10-22 18:00:00 TS 13.3208 117.193 990 tokyo main 335 335 OOO______OPO__ jtwc_wp WP171958 13.3000 117.200 50 0 13.5000 117.100 9 990 0 0 0 13.3000 117.300 3 58 987 13.3000 117.200 TC 50 13.2250 117.160 2 50 13.3000 117.200 50 986 300 10 269
1958293N12128 1958 100 WP MM KATHY 1958-10-22 21:00:00 TS 13.2984 116.704 main 376 376 PPP______PPP__ WP171958 13.2550 116.720 50 0 13.4775 116.612 9 987 0 0 13.3200 116.755 3 63 985 13.2550 116.720 TC 50 13.2282 116.698 2 50 13.2550 116.720 50 983 330 9 272
1958293N12128 1958 100 WP MM KATHY 1958-10-23 00:00:00 TS 13.3500 116.283 985 tokyo main 417 410 OOO______OOO__ jtwc_wp WP171958 13.3000 116.300 50 0 13.5000 116.200 9 985 0 0 0 13.4000 116.300 4 68 984 13.3000 116.300 TC 50 13.3000 116.300 2 50 13.3000 116.300 50 981 360 8 290
1958293N12128 1958 100 WP MM KATHY 1958-10-23 03:00:00 TS 13.5649 115.964 main 456 456 PPP______PPP__ WP171958 13.5699 115.963 67 1 13.6199 115.913 9 982 0 0 13.5698 116.005 4 72 982 13.5699 115.963 TC 67 13.4898 115.978 2 62 13.5699 115.963 67 980 330 7 312
1958293N12128 1958 100 WP MM KATHY 1958-10-23 06:00:00 TS 13.8412 115.720 980 tokyo main 486 482 OOO______OPO__ jtwc_wp WP171958 13.9000 115.700 85 2 13.8000 115.700 9 980 0 0 0 13.8000 115.800 4 77 980 13.9000 115.700 TC 85 13.7469 115.718 2 75 13.9000 115.700 85 979 300 7 319
1958293N12128 1958 100 WP MM KATHY 1958-10-23 09:00:00 TS 14.0747 115.500 main 495 495 PPP______PPP__ WP171958 14.1225 115.477 92 2 13.9925 115.485 9 980 0 0 14.0575 115.585 4 77 980 14.1225 115.477 TC 92 14.0306 115.499 2 87 14.1225 115.477 92 979 270 6 318
1958293N12128 1958 100 WP MM KATHY 1958-10-23 12:00:00 TS 14.2833 115.317 980 tokyo main 509 505 OOO______OOO__ jtwc_wp WP171958 14.3000 115.300 100 3 14.2000 115.300 9 980 0 0 0 14.3000 115.400 4 77 980 14.3000 115.300 TC 100 14.3000 115.300 3 100 14.3000 115.300 100 979 240 5 319
1958293N12128 1958 100 WP MM KATHY 1958-10-23 15:00:00 TS 14.4545 115.159 main 511 511 PPP______PPP__ WP171958 14.4499 115.157 100 3 14.4075 115.150 9 977 0 0 14.4650 115.250 4 77 980 14.4499 115.157 TC 100 14.5046 115.081 3 100 14.4499 115.157 100 979 270 5 317
1958293N12128 1958 100 WP MM KATHY 1958-10-23 18:00:00 TS 14.6146 114.996 975 tokyo main 528 524 OOO______OPO__ jtwc_wp WP171958 14.6000 115.000 100 3 14.6000 115.000 9 975 0 0 0 14.6000 115.100 4 77 980 14.6000 115.000 TC 100 14.6874 114.877 3 100 14.6000 115.000 100 979 300 5 312
1958293N12128 1958 100 WP MM KATHY 1958-10-23 21:00:00 TS 14.7932 114.775 main 542 542 PPP______PPP__ WP171958 14.8001 114.750 100 3 14.7575 114.807 9 975 0 0 14.7500 114.907 4 87 977 14.8001 114.750 TC 100 14.8515 114.685 3 100 14.8001 114.750 100 979 300 6 309
1958293N12128 1958 100 WP MM KATHY 1958-10-24 00:00:00 TS 14.9667 114.550 975 tokyo main 558 558 OOO______OOO__ jtwc_wp WP171958 15.0000 114.500 100 3 14.9000 114.600 9 975 0 0 0 14.9000 114.700 5 97 975 15.0000 114.500 TC 100 15.0000 114.500 4 100 15.0000 114.500 100 980 300 5 310
1958293N12128 1958 100 WP MM KATHY 1958-10-24 03:00:00 TS 15.1223 114.372 main 565 547 PPP______PPP__ WP171958 15.1649 114.342 100 3 15.0500 114.392 9 975 0 0 15.0500 114.492 5 97 975 15.1649 114.342 TC 100 15.1393 114.322 4 98 15.1649 114.342 100 980 270 4 312
1958293N12128 1958 100 WP MM KATHY 1958-10-24 06:00:00 TS 15.2608 114.208 975 tokyo main 550 531 OOO______OPO__ jtwc_wp WP171958 15.3000 114.200 100 3 15.2000 114.200 9 975 0 0 0 15.2000 114.300 5 97 975 15.3000 114.200 TC 100 15.2649 114.150 4 97 15.3000 114.200 100 981 240 4 309
1958293N12128 1958 100 WP MM KATHY 1958-10-24 09:00:00 TS 15.3842 114.037 main 531 516 PPP______PPP__ WP171958 15.4075 114.015 97 3 15.3500 114.050 9 975 0 0 15.3500 114.150 5 97 975 15.4075 114.015 TC 97 15.3830 113.978 4 96 15.4075 114.015 97 981 270 4 305
1958293N12128 1958 100 WP MM KATHY 1958-10-24 12:00:00 TS 15.5000 113.850 975 tokyo main 516 485 OOO______OOO__ jtwc_wp WP171958 15.5000 113.800 95 2 15.5000 113.900 9 975 0 0 0 15.5000 114.000 5 97 975 15.5000 113.800 TC 95 15.5000 113.800 4 95 15.5000 113.800 95 982 300 5 300
1958293N12128 1958 100 WP MM KATHY 1958-10-24 15:00:00 TS 15.6178 113.623 main 485 462 PPP______PPP__ WP171958 15.5925 113.543 92 2 15.6500 113.707 9 975 0 0 15.6500 113.807 5 97 975 15.5925 113.543 TC 92 15.6291 113.595 4 92 15.5925 113.543 92 982 300 5 299
1958293N12128 1958 100 WP MM KATHY 1958-10-24 18:00:00 TS 15.7429 113.398 975 tokyo main 462 431 OOO______OPO__ jtwc_wp WP171958 15.7000 113.300 90 2 15.8000 113.500 9 975 0 0 0 15.8000 113.600 5 97 975 15.7000 113.300 TC 90 15.7576 113.385 4 90 15.7000 113.300 90 983 300 5 304
1958293N12128 1958 100 WP MM KATHY 1958-10-24 21:00:00 TS 15.8874 113.210 main 431 416 PPP______PPP__ WP171958 15.8425 113.127 87 2 15.9575 113.293 9 977 0 0 15.9575 113.400 5 87 977 15.8425 113.127 TC 87 15.8822 113.183 4 87 15.8425 113.127 87 983 300 4 311
1958293N12128 1958 100 WP MM KATHY 1958-10-25 00:00:00 TS 16.0333 113.050 980 tokyo main 416 385 OOO______OOO__ jtwc_wp WP171958 16.0000 113.000 85 2 16.1000 113.100 9 980 0 0 0 16.1000 113.200 4 77 980 16.0000 113.000 TC 85 16.0000 113.000 4 85 16.0000 113.000 85 984 300 4 316
1958293N12128 1958 100 WP MM KATHY 1958-10-25 03:00:00 TS 16.1762 112.922 main 385 370 PPP______PPP__ WP171958 16.1650 112.900 82 1 16.2000 112.950 9 982 0 0 16.2150 113.000 4 72 982 16.1650 112.900 TC 82 16.1475 112.882 4 81 16.1650 112.900 82 984 270 4 317
1958293N12128 1958 100 WP MM KATHY 1958-10-25 06:00:00 TS 16.2970 112.797 985 tokyo main 370 354 OOO______OPO__ jtwc_wp WP171958 16.3000 112.800 80 1 16.3000 112.800 9 985 0 0 0 16.3000 112.800 4 68 985 16.3000 112.800 TC 80 16.2821 112.780 4 78 16.3000 112.800 80 985 240 3 310
1958293N12128 1958 100 WP MM KATHY 1958-10-25 09:00:00 TS 16.3947 112.648 main 347 340 PPP______PPP__ WP171958 16.3800 112.673 75 1 16.4575 112.608 9 985 0 0 16.3950 112.600 4 68 985 16.3800 112.673 TC 75 16.3756 112.663 4 75 16.3800 112.673 76 986 240 3 293
1958293N12128 1958 100 WP MM KATHY 1958-10-25 12:00:00 TS 16.4333 112.467 985 tokyo main 340 320 OOO______OOO__ jtwc_wp WP171958 16.4000 112.500 70 1 16.6000 112.400 9 985 0 0 0 16.4000 112.400 4 68 985 16.4000 112.500 TC 70 16.4000 112.500 4 72 16.4000 112.500 72 987 240 4 273
1958293N12128 1958 100 WP MM KATHY 1958-10-25 15:00:00 TS 16.4172 112.231 main 320 314 PPP______PPP__ WP171958 16.3950 112.280 67 1 16.7025 112.178 9 987 0 0 16.2450 112.170 4 68 985 16.3950 112.280 TC 67 16.3711 112.201 4 66 16.3950 112.280 68 987 210 5 255
1958293N12128 1958 100 WP MM KATHY 1958-10-25 18:00:00 TS 16.3109 111.977 990 tokyo main 316 305 OOO______OPO__ jtwc_wp WP171958 16.3000 112.000 65 1 16.7000 112.000 9 990 0 0 0 16.0000 112.000 4 68 985 16.3000 112.000 TC 65 16.2656 111.862 4 60 16.3000 112.000 65 988 180 6 240
1958293N12128 1958 100 WP MM KATHY 1958-10-25 21:00:00 TS 16.1196 111.698 main 314 289 PPP______PPP__ WP171958 16.1177 111.612 57 0 16.5300 111.912 9 995 0 0 15.7573 111.895 4 63 987 16.1177 111.612 TC 57 16.0773 111.542 4 54 16.1177 111.612 56 989 150 7 223
1958293N12128 1958 100 WP MM KATHY 1958-10-26 00:00:00 TS 15.8333 111.517 1000 tokyo main 285 272 OOO______OOO__ jtwc_wp WP171958 15.8000 111.300 50 0 16.3000 111.900 9 1000 0 0 0 15.5000 112.000 3 58 990 15.8000 111.300 TC 50 15.8000 111.300 2 48 15.8000 111.300 48 990 120 7 192
1958293N12128 1958 100 WP MM KATHY 1958-10-26 03:00:00 TS 15.4790 111.558 main 283 274 PPP______PPP__ WP171958 15.3224 111.248 42 0 16.1948 111.867 9 1000 0 0 15.2880 112.500 3 58 991 15.3224 111.248 TC 42 15.4238 111.235 2 44 15.3224 111.248 41 990 90 8 169
1958293N12128 1958 100 WP MM KATHY 1958-10-26 06:00:00 TS 15.0204 111.678 1000 tokyo main 281 270 OOO______OPO__ jtwc_wp WP171958 14.8000 111.300 35 0 16.0000 112.000 2 1000 0 0 0 15.0000 113.000 3 58 992 14.8000 111.300 TC 35 14.9672 111.249 2 40 14.8000 111.300 35 991 60 10 169
1958293N12128 1958 100 WP MM KATHY 1958-10-26 09:00:00 TS 14.5306 111.748 main 267 260 PPP______PPP__ WP171958 14.3850 111.323 32 -1 15.5730 112.416 2 1003 0 0 14.4996 113.150 3 53 993 14.3850 111.323 TC 32 14.4770 111.288 2 36 14.3850 111.323 33 992 60 10 0
1958293N12128 1958 100 WP MM KATHY 1958-10-26 12:00:00 TS 14.0476 111.705 1006 tokyo main 259 230 OOO______OOO__ jtwc_wp WP171958 14.0000 111.300 30 -1 15.0000 113.000 2 1006 0 0 0 14.0000 113.000 3 48 995 14.0000 111.300 TC 30 14.0000 111.300 1 32 14.0000 111.300 32 993 60 10 197
1958293N12128 1958 100 WP MM KATHY 1958-10-26 15:00:00 TS 13.6219 111.460 main 230 189 P_P______PPP__ WP171958 13.5925 111.165 30 -1 2 0 0 13.7202 112.575 3 43 997 13.5925 111.165 TC 30 13.6115 111.231 1 31 13.5925 111.165 31 993 60 9 211
1958293N12128 1958 100 WP MM KATHY 1958-10-26 18:00:00 TS 13.2685 111.225 main 189 162 O_O______OPO__ jtwc_wp WP171958 13.2000 111.000 30 -1 13.5000 112.000 2 38 1000 13.2000 111.000 TC 30 13.2424 111.125 1 31 13.2000 111.000 30 994 60 8 210
1958293N12128 1958 100 WP MM KATHY 1958-10-26 21:00:00 TS 12.9149 111.035 main 162 152 P_P______PPP__ WP171958 12.8275 110.908 30 -1 13.2151 111.470 2 38 1000 12.8275 110.908 TC 30 12.8771 110.981 1 30 12.8275 110.908 30 994 60 8 209
1958293N12128 1958 100 WP MM KATHY 1958-10-27 00:00:00 TS 12.5800 110.840 main 141 124 O_O______OOO__ jtwc_wp WP171958 12.5000 110.800 30 -1 12.9000 111.000 2 38 1000 12.5000 110.800 TC 30 12.5000 110.800 1 30 12.5000 110.800 30 995 60 7 213
1958293N12128 1958 100 WP MM KATHY 1958-10-27 03:00:00 TS 12.3038 110.626 main 124 112 P_P______PPP__ WP171958 12.2875 110.630 30 -1 12.5574 110.655 2 33 1001 12.2875 110.630 TC 30 12.0992 110.582 1 30 12.2875 110.630 30 996 60 7 217
1958293N12128 1958 100 WP MM KATHY 1958-10-27 06:00:00 TS 11.9896 110.388 main 118 93 O_O______OPO__ jtwc_wp WP171958 12.0000 110.400 30 -1 12.2000 110.400 1 29 1003 12.0000 110.400 TC 30 11.6778 110.337 1 30 12.0000 110.400 30 997 60 9 213
1958293N12128 1958 100 WP MM KATHY 1958-10-27 09:00:00 TS 11.5638 110.131 main 93 93 P_P______PPP__ WP171958 11.4751 110.115 30 -1 11.8574 110.185 1 29 1003 11.4751 110.115 TC 30 11.2424 110.073 1 30 11.4751 110.115 30 998 60 10 210
1958293N12128 1958 100 WP MM KATHY 1958-10-27 12:00:00 TS 11.1500 109.900 main 94 93 O_O______OOO__ jtwc_wp WP171958 10.8000 109.800 30 -1 11.5000 110.000 1 29 1003 10.8000 109.800 TC 30 10.8000 109.800 1 30 10.8000 109.800 30 999 60 6 214
1958293N12128 1958 100 WP MM KATHY 1958-10-27 15:00:00 TS 11.1000 109.815 main 93 88 __P___________ WP171958 -1 11.1000 109.815 1 26 1004 TC 1 5 213
1958293N12128 1958 100 WP MM KATHY 1958-10-27 18:00:00 TS 10.7000 109.600 main 102 102 __O___________ -1 10.7000 109.600 1 23 1005 1 9 213
1958293N12128 1958 100 WP MM KATHY 1958-10-27 21:00:00 TS 10.3275 109.307 main 120 120 __P___________ -1 10.3275 109.307 1 23 1005 1 9 220
1958293N12128 1958 100 WP MM KATHY 1958-10-28 00:00:00 TS 10.0000 109.000 main 126 126 __O___________ -1 10.0000 109.000 1 23 1005 8 223
1958293N12128 1958 100 WP MM KATHY 1958-10-28 03:00:00 TS 9.73497 108.743 main 135 135 __P___________ -1 9.73497 108.743 1 23 1005 7 225
1958293N12128 1958 100 WP MM KATHY 1958-10-28 06:00:00 TS 9.50000 108.500 main 145 145 __O___________ -1 9.50000 108.500 1 23 1005 7 225
1958293N12128 1958 100 WP MM KATHY 1958-10-28 09:00:00 TS 9.24998 108.250 main 171 166 __P___________ -1 9.24998 108.250 1 21 1005 7 225
1958293N12128 1958 100 WP MM KATHY 1958-10-28 12:00:00 TS 9.00000 108.000 main 172 165 __O___________ -1 9.00000 108.000 0 19 1005 7 225
1958293N12128 1958 100 WP MM KATHY 1958-10-28 15:00:00 TS 8.75003 107.750 main 157 157 __P___________ -1 8.75003 107.750 0 19 1005 7 225
1958293N12128 1958 100 WP MM KATHY 1958-10-28 18:00:00 TS 8.50000 107.500 main 164 __O___________ -1 8.50000 107.500 0 19 1005 7 225

Digital Typhoon Data and Search

About IBTrACS Database

This database is a web-friendly format of International Best Track Archive for Climate Stewardship (IBTrACS), a global best track data archive curated by NOAA dating back to 1842.

Updated: 2021-12-06